createdAt,value
2023-03-21T00:00:21.744Z,48918.44
2023-03-21T00:02:48.317Z,48896.88
2023-03-21T00:05:16.050Z,48941.94
2023-03-21T00:07:43.161Z,48949.78
2023-03-21T00:10:16.490Z,48961.53
2023-03-21T00:12:46.236Z,48965.44
2023-03-21T00:15:12.963Z,48961.53
2023-03-21T00:17:39.883Z,48990.91
2023-03-21T00:20:12.067Z,48965.44
2023-03-21T00:22:38.479Z,48985.03
2023-03-21T00:25:05.326Z,49010.50
2023-03-21T00:27:53.314Z,49024.22
2023-03-21T00:30:20.531Z,49020.31
2023-03-21T00:32:55.351Z,49006.59
2023-03-21T00:35:53.388Z,49016.38
2023-03-21T00:38:09.541Z,48981.13
2023-03-21T00:40:43.649Z,48983.06
2023-03-21T00:43:17.527Z,49008.53
2023-03-21T00:45:44.820Z,49000.72
2023-03-21T00:48:11.332Z,49008.53
2023-03-21T00:50:39.325Z,49008.53
2023-03-21T00:53:06.903Z,48996.78
2023-03-21T00:55:33.741Z,48996.78
2023-03-21T00:58:02.396Z,49008.53
2023-03-21T01:00:29.918Z,48987.00
2023-03-21T01:03:14.125Z,48985.03
2023-03-21T01:06:06.115Z,48973.28
2023-03-21T01:08:51.256Z,48981.13
2023-03-21T01:11:20.969Z,48971.31
2023-03-21T01:13:54.875Z,48981.13
2023-03-21T01:16:27.303Z,48979.16
2023-03-21T01:18:53.874Z,49004.63
2023-03-21T01:21:20.410Z,49024.22
2023-03-21T01:23:47.364Z,49018.34
2023-03-21T01:26:15.380Z,49006.59
2023-03-21T01:28:43.367Z,49014.41
2023-03-21T01:31:12.919Z,48992.88
2023-03-21T01:33:39.619Z,49000.72
2023-03-21T01:36:13.036Z,49016.38
2023-03-21T01:38:41.612Z,49000.72
2023-03-21T01:41:19.548Z,49020.31
2023-03-21T01:43:47.431Z,49006.59
2023-03-21T01:46:37.097Z,49000.72
2023-03-21T01:49:13.031Z,49039.88
2023-03-21T01:51:55.022Z,49012.47
2023-03-21T01:54:28.507Z,48996.78
2023-03-21T01:56:57.900Z,49035.97
2023-03-21T01:59:54.324Z,48996.78
2023-03-21T02:02:25.597Z,48967.41
2023-03-21T02:04:55.935Z,49022.25
2023-03-21T02:07:29.585Z,49063.41
2023-03-21T02:09:57.956Z,49047.72
2023-03-21T02:12:26.171Z,49032.06
2023-03-21T02:14:54.737Z,49026.19
2023-03-21T02:17:36.246Z,49043.81
2023-03-21T02:20:38.280Z,49053.59
2023-03-21T02:23:29.925Z,49016.38
2023-03-21T02:26:08.450Z,49000.72
2023-03-21T02:28:58.416Z,49004.63
2023-03-21T02:31:28.658Z,49028.13
2023-03-21T02:34:07.351Z,49012.47
2023-03-21T02:36:50.276Z,49030.09
2023-03-21T02:39:23.900Z,49012.47
2023-03-21T02:41:56.606Z,49032.06
2023-03-21T02:44:25.286Z,49047.72
2023-03-21T02:47:06.445Z,49020.31
2023-03-21T02:49:42.845Z,49028.13
2023-03-21T02:52:22.900Z,49012.47
2023-03-21T02:54:56.773Z,49020.31
2023-03-21T02:57:27.037Z,48996.78
2023-03-21T03:00:02.357Z,49012.47
2023-03-21T03:02:31.834Z,49016.38
2023-03-21T03:04:58.909Z,49004.63
2023-03-21T03:07:41.552Z,49047.72
2023-03-21T03:10:33.608Z,49034.00
2023-03-21T03:13:12.130Z,49020.31
2023-03-21T03:16:07.675Z,49022.25
2023-03-21T03:18:55.742Z,49032.06
2023-03-21T03:21:42.176Z,49012.47
2023-03-21T03:24:22.727Z,49035.97
2023-03-21T03:27:07.980Z,48996.78
2023-03-21T03:29:37.539Z,48996.78
2023-03-21T03:32:12.539Z,49008.53
2023-03-21T03:34:44.326Z,49024.22
2023-03-21T03:37:16.511Z,49010.50
2023-03-21T03:39:51.427Z,49016.38
2023-03-21T03:42:28.519Z,49012.47
2023-03-21T03:44:56.076Z,49024.22
2023-03-21T03:47:55.903Z,49024.22
2023-03-21T03:50:44.595Z,49055.56
2023-03-21T03:53:18.566Z,48977.19
2023-03-21T03:55:46.242Z,48992.88
2023-03-21T03:58:22.109Z,49016.38
2023-03-21T04:00:50.442Z,49028.13
2023-03-21T04:03:16.971Z,49000.72
2023-03-21T04:05:46.315Z,49020.31
2023-03-21T04:08:14.304Z,49004.63
2023-03-21T04:10:42.495Z,49039.88
2023-03-21T04:13:09.897Z,49002.66
2023-03-21T04:15:36.761Z,49012.47
2023-03-21T04:18:03.793Z,49012.47
2023-03-21T04:20:36.994Z,49016.38
2023-03-21T04:23:09.711Z,49006.59
2023-03-21T04:25:42.292Z,49028.13
2023-03-21T04:28:14.180Z,49028.13
2023-03-21T04:30:43.425Z,49016.38
2023-03-21T04:33:15.777Z,49016.38
2023-03-21T04:35:42.601Z,49012.47
2023-03-21T04:38:09.079Z,49039.88
2023-03-21T04:40:35.836Z,49020.31
2023-03-21T04:43:02.529Z,49055.56
2023-03-21T04:45:28.999Z,49020.31
2023-03-21T04:47:56.740Z,49024.22
2023-03-21T04:50:23.278Z,48988.94
2023-03-21T04:52:49.724Z,49035.97
2023-03-21T04:55:16.282Z,49037.94
2023-03-21T04:57:42.668Z,49035.97
2023-03-21T05:00:16.000Z,49024.22
2023-03-21T05:02:42.475Z,48992.88
2023-03-21T05:05:11.403Z,49028.13
2023-03-21T05:07:42.199Z,49016.38
2023-03-21T05:10:11.803Z,49028.13
2023-03-21T05:12:38.614Z,49059.47
2023-03-21T05:15:05.931Z,49020.31
2023-03-21T05:17:32.369Z,48988.94
2023-03-21T05:19:58.844Z,49034.00
2023-03-21T05:22:26.816Z,49032.06
2023-03-21T05:24:55.349Z,48996.78
2023-03-21T05:27:35.150Z,49020.31
2023-03-21T05:30:11.092Z,49024.22
2023-03-21T05:32:37.565Z,49006.59
2023-03-21T05:35:04.208Z,49014.41
2023-03-21T05:37:30.729Z,49039.88
2023-03-21T05:39:57.106Z,49035.97
2023-03-21T05:42:23.765Z,49016.38
2023-03-21T05:44:50.567Z,49039.88
2023-03-21T05:47:18.360Z,49037.94
2023-03-21T05:49:45.941Z,49026.19
2023-03-21T05:52:12.577Z,49004.63
2023-03-21T05:54:38.964Z,49020.31
2023-03-21T05:57:05.809Z,49032.06
2023-03-21T05:59:32.577Z,48996.78
2023-03-21T06:01:59.053Z,49024.22
2023-03-21T06:04:25.701Z,49008.53
2023-03-21T06:06:53.475Z,49022.25
2023-03-21T06:09:22.182Z,49059.47
2023-03-21T06:11:51.732Z,49028.13
2023-03-21T06:14:19.411Z,49012.47
2023-03-21T06:16:46.362Z,49002.66
2023-03-21T06:19:12.764Z,49000.72
2023-03-21T06:21:39.441Z,49035.97
2023-03-21T06:24:06.171Z,49012.47
2023-03-21T06:26:32.887Z,49047.72
2023-03-21T06:28:59.383Z,49012.47
2023-03-21T06:31:26.886Z,49010.50
2023-03-21T06:33:53.553Z,49018.34
2023-03-21T06:36:20.233Z,49024.22
2023-03-21T06:38:46.943Z,49051.66
2023-03-21T06:41:13.759Z,49037.94
2023-03-21T06:43:40.167Z,49024.22
2023-03-21T06:46:06.921Z,49065.34
2023-03-21T06:48:33.340Z,49020.31
2023-03-21T06:50:59.746Z,49039.88
2023-03-21T06:53:29.958Z,49071.25
2023-03-21T06:55:56.832Z,49014.41
2023-03-21T06:58:23.722Z,49008.53
2023-03-21T07:00:50.568Z,49035.97
2023-03-21T07:03:17.025Z,49051.66
2023-03-21T07:05:43.481Z,49012.47
2023-03-21T07:08:12.307Z,48965.44
2023-03-21T07:10:41.193Z,48996.78
2023-03-21T07:13:07.851Z,49045.78
2023-03-21T07:15:38.133Z,49004.63
2023-03-21T07:18:05.792Z,48992.88
2023-03-21T07:20:32.232Z,48992.88
2023-03-21T07:22:58.971Z,49032.06
2023-03-21T07:25:25.456Z,49010.50
2023-03-21T07:27:52.275Z,49010.50
2023-03-21T07:30:19.174Z,48988.94
2023-03-21T07:32:45.753Z,49012.47
2023-03-21T07:35:13.697Z,48973.28
2023-03-21T07:37:40.993Z,49004.63
2023-03-21T07:40:12.366Z,48969.38
2023-03-21T07:42:42.735Z,48914.50
2023-03-21T07:45:10.898Z,48891.00
2023-03-21T07:47:37.400Z,48939.97
2023-03-21T07:50:04.557Z,48965.44
2023-03-21T07:52:31.466Z,48891.00
2023-03-21T07:54:57.938Z,48896.88
2023-03-21T07:57:24.389Z,48977.19
2023-03-21T07:59:50.839Z,48973.28
2023-03-21T08:02:18.432Z,48985.03
2023-03-21T08:04:45.133Z,48981.13
2023-03-21T08:07:11.757Z,48987.00
2023-03-21T08:09:38.244Z,49024.22
2023-03-21T08:12:06.075Z,48996.78
2023-03-21T08:14:33.147Z,48988.94
2023-03-21T08:17:00.068Z,49008.53
2023-03-21T08:19:27.070Z,48953.69
2023-03-21T08:21:53.654Z,48930.19
2023-03-21T08:24:20.248Z,48916.47
2023-03-21T08:26:46.817Z,48922.34
2023-03-21T08:29:13.585Z,48910.59
2023-03-21T08:31:40.960Z,48894.91
2023-03-21T08:34:08.086Z,48949.78
2023-03-21T08:36:36.890Z,48902.75
2023-03-21T08:39:05.563Z,48928.22
2023-03-21T08:41:37.122Z,48908.63
2023-03-21T08:44:05.752Z,48887.09
2023-03-21T08:46:33.138Z,48849.88
2023-03-21T08:48:59.598Z,48902.75
2023-03-21T08:51:26.271Z,48812.63
2023-03-21T08:53:52.775Z,48808.72
2023-03-21T08:56:19.204Z,48779.34
2023-03-21T08:58:45.584Z,48789.13
2023-03-21T09:01:15.470Z,48824.41
2023-03-21T09:03:42.769Z,48791.09
2023-03-21T09:06:12.139Z,48836.16
2023-03-21T09:08:38.723Z,48832.22
2023-03-21T09:11:05.550Z,48800.88
2023-03-21T09:13:33.026Z,48781.31
2023-03-21T09:16:01.397Z,48789.13
2023-03-21T09:18:48.930Z,48777.38
2023-03-21T09:21:18.252Z,48746.03
2023-03-21T09:23:44.923Z,48755.84
2023-03-21T09:26:12.491Z,48757.78
2023-03-21T09:28:40.480Z,48742.13
2023-03-21T09:31:11.286Z,48746.03
2023-03-21T09:33:40.352Z,48738.19
2023-03-21T09:36:13.385Z,48740.16
2023-03-21T09:38:46.872Z,48732.31
2023-03-21T09:41:47.622Z,48744.06
2023-03-21T09:44:54.037Z,48742.13
2023-03-21T09:47:29.472Z,48767.59
2023-03-21T09:50:12.990Z,48746.03
2023-03-21T09:52:54.705Z,48722.53
2023-03-21T09:55:26.850Z,48765.63
2023-03-21T09:58:22.356Z,48738.19
2023-03-21T10:00:53.997Z,48746.03
2023-03-21T10:03:24.426Z,48777.38
2023-03-21T10:05:53.021Z,48753.88
2023-03-21T10:08:27.707Z,48742.13
2023-03-21T10:11:02.209Z,48757.78
2023-03-21T10:13:35.883Z,48769.53
2023-03-21T10:16:14.452Z,48761.72
2023-03-21T10:18:42.575Z,48757.78
2023-03-21T10:21:37.286Z,48730.38
2023-03-21T10:24:03.051Z,48757.78
2023-03-21T10:26:30.661Z,48761.72
2023-03-21T10:29:00.570Z,48755.84
2023-03-21T10:31:30.437Z,48765.63
2023-03-21T10:34:02.521Z,48732.31
2023-03-21T10:36:32.852Z,48789.13
2023-03-21T10:39:04.910Z,48765.63
2023-03-21T10:41:32.363Z,48775.41
2023-03-21T10:44:11.816Z,48761.72
2023-03-21T10:46:38.571Z,48769.53
2023-03-21T10:49:07.616Z,48746.03
2023-03-21T10:51:38.214Z,48744.06
2023-03-21T10:54:08.357Z,48757.78
2023-03-21T10:56:44.657Z,48742.13
2023-03-21T10:59:20.403Z,48769.53
2023-03-21T11:01:51.862Z,48769.53
2023-03-21T11:04:22.508Z,48746.03
2023-03-21T11:06:57.838Z,48740.16
2023-03-21T11:09:27.822Z,48734.28
2023-03-21T11:11:56.102Z,48769.53
2023-03-21T11:14:33.052Z,48789.13
2023-03-21T11:16:59.755Z,48755.84
2023-03-21T11:19:32.237Z,48765.63
2023-03-21T11:22:05.439Z,48734.28
2023-03-21T11:24:33.266Z,48746.03
2023-03-21T11:27:01.874Z,48771.50
2023-03-21T11:29:37.192Z,48759.75
2023-03-21T11:32:21.283Z,48777.38
2023-03-21T11:35:05.898Z,48738.19
2023-03-21T11:37:51.128Z,48777.38
2023-03-21T11:40:23.783Z,48761.72
2023-03-21T11:42:53.374Z,48769.53
2023-03-21T11:45:27.558Z,48765.63
2023-03-21T11:47:56.278Z,48769.53
2023-03-21T11:50:36.293Z,48759.75
2023-03-21T11:53:22.612Z,48783.25
2023-03-21T11:56:02.197Z,48804.81
2023-03-21T11:59:01.525Z,48761.72
2023-03-21T12:01:53.152Z,48769.53
2023-03-21T12:04:34.904Z,48773.47
2023-03-21T12:07:22.518Z,48742.13
2023-03-21T12:10:09.392Z,48793.06
2023-03-21T12:12:52.511Z,48746.03
2023-03-21T12:15:27.692Z,48769.53
2023-03-21T12:17:57.073Z,48761.72
2023-03-21T12:20:31.337Z,48769.53
2023-03-21T12:23:22.949Z,48777.38
2023-03-21T12:26:04.068Z,48761.72
2023-03-21T12:28:42.906Z,48746.03
2023-03-21T12:31:12.427Z,48777.38
2023-03-21T12:33:55.756Z,48757.78
2023-03-21T12:36:44.045Z,48753.88
2023-03-21T12:39:28.397Z,48769.53
2023-03-21T12:42:21.509Z,48753.88
2023-03-21T12:44:55.647Z,48789.13
2023-03-21T12:47:28.344Z,48773.47
2023-03-21T12:50:01.593Z,48773.47
2023-03-21T12:52:36.912Z,48785.22
2023-03-21T12:55:19.037Z,48787.19
2023-03-21T12:58:03.583Z,48781.31
2023-03-21T13:00:45.504Z,48744.06
2023-03-21T13:03:19.615Z,48785.22
2023-03-21T13:05:58.759Z,48773.47
2023-03-21T13:08:30.340Z,48765.63
2023-03-21T13:11:00.196Z,48765.63
2023-03-21T13:13:40.208Z,48753.88
2023-03-21T13:16:20.846Z,48781.31
2023-03-21T13:19:05.763Z,48773.47
2023-03-21T13:21:34.840Z,48785.22
2023-03-21T13:24:01.497Z,48777.38
2023-03-21T13:26:38.106Z,48773.47
2023-03-21T13:29:32.697Z,48777.38
2023-03-21T13:32:15.366Z,48800.88
2023-03-21T13:34:43.393Z,48787.19
2023-03-21T13:37:18.861Z,48775.41
2023-03-21T13:39:47.254Z,48787.19
2023-03-21T13:42:29.131Z,48789.13
2023-03-21T13:44:59.372Z,48793.06
2023-03-21T13:47:40.564Z,48777.38
2023-03-21T13:50:29.364Z,48793.06
2023-03-21T13:53:01.808Z,48781.31
2023-03-21T13:55:41.678Z,48800.88
2023-03-21T13:58:43.954Z,48763.66
2023-03-21T14:01:28.552Z,48793.06
2023-03-21T14:04:11.180Z,48800.88
2023-03-21T14:06:47.490Z,48773.47
2023-03-21T14:09:23.293Z,48779.34
2023-03-21T14:11:54.647Z,48781.31
2023-03-21T14:14:26.486Z,48765.63
2023-03-21T14:16:53.981Z,48789.13
2023-03-21T14:19:20.921Z,48769.53
2023-03-21T14:21:51.531Z,48785.22
2023-03-21T14:24:19.147Z,48777.38
2023-03-21T14:26:54.797Z,48781.31
2023-03-21T14:29:27.289Z,48773.47
2023-03-21T14:31:56.378Z,48785.22
2023-03-21T14:34:26.421Z,48781.31
2023-03-21T14:36:58.270Z,48765.63
2023-03-21T14:39:32.288Z,48796.97
2023-03-21T14:42:05.787Z,48773.47
2023-03-21T14:44:52.895Z,48777.38
2023-03-21T14:47:23.180Z,48789.13
2023-03-21T14:49:50.581Z,48793.06
2023-03-21T14:52:25.429Z,48796.97
2023-03-21T14:54:53.696Z,48812.63
2023-03-21T14:57:24.976Z,48793.06
2023-03-21T14:59:54.838Z,48781.31
2023-03-21T15:02:38.631Z,48793.06
2023-03-21T15:05:29.202Z,48765.63
2023-03-21T15:08:07.713Z,48779.34
2023-03-21T15:10:34.159Z,48775.41
2023-03-21T15:13:12.857Z,48757.78
2023-03-21T15:15:40.353Z,48804.81
2023-03-21T15:18:08.437Z,48777.38
2023-03-21T15:20:37.677Z,48796.97
2023-03-21T15:23:12.178Z,48781.31
2023-03-21T15:25:39.414Z,48785.22
2023-03-21T15:28:06.697Z,48757.78
2023-03-21T15:30:34.254Z,48781.31
2023-03-21T15:33:09.634Z,48793.06
2023-03-21T15:35:40.251Z,48773.47
2023-03-21T15:38:07.355Z,48787.19
2023-03-21T15:40:34.840Z,48796.97
2023-03-21T15:43:07.414Z,48761.72
2023-03-21T15:45:34.012Z,48777.38
2023-03-21T15:48:09.103Z,48789.13
2023-03-21T15:50:38.876Z,48785.22
2023-03-21T15:53:17.177Z,48767.59
2023-03-21T15:55:48.211Z,48781.31
2023-03-21T15:58:19.550Z,48785.22
2023-03-21T16:00:55.452Z,48781.31
2023-03-21T16:03:27.272Z,48781.31
2023-03-21T16:06:27.182Z,48781.31
2023-03-21T16:09:04.963Z,48777.38
2023-03-21T16:11:43.130Z,48775.41
2023-03-21T16:14:09.991Z,48765.63
2023-03-21T16:16:37.860Z,48771.50
2023-03-21T16:19:04.454Z,48773.47
2023-03-21T16:21:33.685Z,48793.06
2023-03-21T16:24:01.655Z,48808.72
2023-03-21T16:26:31.986Z,48781.31
2023-03-21T16:28:58.654Z,48781.31
2023-03-21T16:31:28.098Z,48769.53
2023-03-21T16:33:54.570Z,48785.22
2023-03-21T16:36:24.350Z,48759.75
2023-03-21T16:38:52.702Z,48800.88
2023-03-21T16:41:20.786Z,48781.31
2023-03-21T16:43:47.595Z,48746.03
2023-03-21T16:46:22.618Z,48793.06
2023-03-21T16:48:52.174Z,48765.63
2023-03-21T16:51:25.904Z,48763.66
2023-03-21T16:53:53.476Z,48753.88
2023-03-21T16:56:26.876Z,48767.59
2023-03-21T16:58:57.290Z,48765.63
2023-03-21T17:01:29.881Z,48773.47
2023-03-21T17:03:57.872Z,48814.59
2023-03-21T17:06:27.284Z,48767.59
2023-03-21T17:08:55.726Z,48751.91
2023-03-21T17:11:24.136Z,48746.03
2023-03-21T17:13:52.740Z,48746.03
2023-03-21T17:16:26.837Z,48785.22
2023-03-21T17:18:54.445Z,48777.38
2023-03-21T17:21:26.347Z,48777.38
2023-03-21T17:23:53.204Z,48763.66
2023-03-21T17:26:22.350Z,48761.72
2023-03-21T17:28:49.172Z,48761.72
2023-03-21T17:31:17.704Z,48773.47
2023-03-21T17:33:44.812Z,48785.22
2023-03-21T17:36:20.216Z,48773.47
2023-03-21T17:38:46.903Z,48763.66
2023-03-21T17:41:18.433Z,48796.97
2023-03-21T17:43:45.459Z,48773.47
2023-03-21T17:46:17.534Z,48779.34
2023-03-21T17:48:45.485Z,48746.03
2023-03-21T17:51:14.742Z,48785.22
2023-03-21T17:53:42.475Z,48763.66
2023-03-21T17:56:14.366Z,48763.66
2023-03-21T17:58:40.915Z,48781.31
2023-03-21T18:01:07.447Z,48761.72
2023-03-21T18:03:33.889Z,48777.38
2023-03-21T18:06:00.355Z,48771.50
2023-03-21T18:08:27.116Z,48730.38
2023-03-21T18:10:53.651Z,48771.50
2023-03-21T18:13:20.080Z,48761.72
2023-03-21T18:15:48.377Z,48761.72
2023-03-21T18:18:14.896Z,48761.72
2023-03-21T18:20:58.490Z,48820.47
2023-03-21T18:23:25.283Z,48765.63
2023-03-21T18:25:52.544Z,48765.63
2023-03-21T18:28:21.397Z,48761.72
2023-03-21T18:33:37.699Z,48769.53
2023-03-21T18:36:07.553Z,48800.88
2023-03-21T18:38:36.466Z,48761.72
2023-03-21T18:41:03.551Z,48785.22
2023-03-21T18:46:17.523Z,48746.03
2023-03-21T18:48:44.008Z,48757.78
2023-03-21T18:51:10.578Z,48785.22
2023-03-21T18:53:37.256Z,48757.78
2023-03-21T18:56:09.516Z,48765.63
2023-03-21T18:58:36.643Z,48781.31
2023-03-21T19:01:05.040Z,48773.47
2023-03-21T19:03:36.630Z,48793.06
2023-03-21T19:06:04.569Z,48746.03
2023-03-21T19:08:31.251Z,48769.53
2023-03-21T19:11:00.218Z,48765.63
2023-03-21T19:13:29.823Z,48753.88
2023-03-21T19:15:56.386Z,48769.53
2023-03-21T19:18:53.532Z,48769.53
2023-03-21T19:21:09.494Z,48765.63
2023-03-21T19:23:59.325Z,48755.84
2023-03-21T19:26:22.659Z,48757.78
2023-03-21T19:28:49.042Z,48777.38
2023-03-21T19:31:16.295Z,48742.13
2023-03-21T19:33:42.952Z,48753.88
2023-03-21T19:36:18.372Z,48773.47
2023-03-21T19:38:47.530Z,48767.59
2023-03-21T19:41:14.130Z,48781.31
2023-03-21T19:43:52.905Z,48773.47
2023-03-21T19:46:24.400Z,48757.78
2023-03-21T19:48:50.843Z,48779.34
2023-03-21T19:51:33.159Z,48761.72
2023-03-21T19:54:03.307Z,48781.31
2023-03-21T19:56:31.654Z,48761.72
2023-03-21T19:58:59.034Z,48769.53
2023-03-21T20:01:26.232Z,48769.53
2023-03-21T20:03:53.212Z,48757.78
2023-03-21T20:06:22.199Z,48771.50
2023-03-21T20:11:35.154Z,48779.34
2023-03-21T20:14:03.231Z,48769.53
2023-03-21T20:16:35.022Z,48785.22
2023-03-21T20:19:04.587Z,48773.47
2023-03-21T20:21:36.617Z,48757.78
2023-03-21T20:24:12.846Z,48753.88
2023-03-21T20:26:39.446Z,48769.53
2023-03-21T20:29:48.487Z,48793.06
2023-03-21T20:31:53.123Z,48769.53
2023-03-21T20:34:19.558Z,48793.06
2023-03-21T20:36:46.137Z,48783.25
2023-03-21T20:39:12.613Z,48773.47
2023-03-21T20:41:39.438Z,48765.63
2023-03-21T20:44:41.785Z,48767.59
2023-03-21T20:46:53.136Z,48777.38
2023-03-21T20:49:23.152Z,48769.53
2023-03-21T20:54:37.170Z,48753.88
2023-03-21T20:57:04.839Z,48746.03
2023-03-21T20:59:31.651Z,48769.53
2023-03-21T21:01:58.433Z,48746.03
2023-03-21T21:04:52.944Z,48742.13
2023-03-21T21:07:20.335Z,48777.38
2023-03-21T21:09:47.507Z,48755.84
2023-03-21T21:12:15.430Z,48742.13
2023-03-21T21:14:42.705Z,48744.06
2023-03-21T21:17:54.080Z,48755.84
2023-03-21T21:19:56.147Z,48761.72
2023-03-21T21:22:22.545Z,48773.47
2023-03-21T21:24:48.916Z,48753.88
2023-03-21T21:27:16.695Z,48753.88
2023-03-21T21:29:43.357Z,48746.03
2023-03-21T21:32:09.967Z,48757.78
2023-03-21T21:34:37.079Z,48767.59
2023-03-21T21:37:03.589Z,48789.13
2023-03-21T21:39:35.741Z,48769.53
2023-03-21T21:42:02.649Z,48771.50
2023-03-21T21:44:29.298Z,48769.53
2023-03-21T21:46:57.553Z,48771.50
2023-03-21T21:49:24.509Z,48796.97
2023-03-21T21:51:51.234Z,48763.66
2023-03-21T21:54:18.244Z,48761.72
2023-03-21T21:56:48.295Z,48769.53
2023-03-21T21:59:18.382Z,48777.38
2023-03-21T22:01:46.706Z,48771.50
2023-03-21T22:04:14.375Z,48773.47
2023-03-21T22:06:42.210Z,48771.50
2023-03-21T22:09:08.827Z,48777.38
2023-03-21T22:11:35.272Z,48765.63
2023-03-21T22:14:02.388Z,48761.72
2023-03-21T22:16:29.060Z,48753.88
2023-03-21T22:18:55.728Z,48744.06
2023-03-21T22:21:22.177Z,48761.72
2023-03-21T22:23:48.784Z,48796.97
2023-03-21T22:26:15.312Z,48753.88
2023-03-21T22:28:43.328Z,48785.22
2023-03-21T22:31:12.534Z,48769.53
2023-03-21T22:33:39.002Z,48757.78
2023-03-21T22:36:06.205Z,48759.75
2023-03-21T22:38:34.531Z,48767.59
2023-03-21T22:41:03.190Z,48796.97
2023-03-21T22:43:30.355Z,48769.53
2023-03-21T22:45:57.105Z,48757.78
2023-03-21T22:48:23.733Z,48793.06
2023-03-21T22:50:50.430Z,48785.22
2023-03-21T22:53:16.984Z,48761.72
2023-03-21T22:55:43.385Z,48785.22
2023-03-21T22:58:09.800Z,48769.53
2023-03-21T23:00:36.286Z,48777.38
2023-03-21T23:03:03.095Z,48773.47
2023-03-21T23:05:29.607Z,48789.13
2023-03-21T23:07:56.105Z,48791.09
2023-03-21T23:10:22.529Z,48765.63
2023-03-21T23:12:49.293Z,48773.47
2023-03-21T23:15:15.745Z,48765.63
2023-03-21T23:17:44.134Z,48785.22
2023-03-21T23:20:10.954Z,48755.84
2023-03-21T23:22:37.772Z,48796.97
2023-03-21T23:25:04.690Z,48812.63
2023-03-21T23:27:31.358Z,48800.88
2023-03-21T23:29:57.747Z,48781.31
2023-03-21T23:32:24.396Z,48785.22
2023-03-21T23:34:51.030Z,48769.53
2023-03-21T23:37:17.617Z,48795.00
2023-03-21T23:39:45.252Z,48781.31
2023-03-21T23:42:12.108Z,48793.06
2023-03-21T23:44:38.529Z,48777.38
2023-03-21T23:47:05.608Z,48812.63
2023-03-21T23:49:33.703Z,48785.22
2023-03-21T23:52:00.333Z,48781.31
2023-03-21T23:54:26.803Z,48808.72
2023-03-21T23:56:53.224Z,48779.34
2023-03-21T23:59:19.615Z,48798.94
